Time;durP1;ratioP1;P1;durP2;ratioP2;P2;SDS_P1;SDS_P2;PMS_P1;PMS_P2;Temp;Humidity;BMP_temperature;BMP_pressure;BME280_temperature;BME280_humidity;BME280_pressure;Samples;Min_cycle;Max_cycle;Signal;HPM_P1;HPM_P2
2022/03/07 00:00:48;;;;;;;;;;;23.40;99.90;;;;;;5015339;28;19914;-75
2022/03/07 00:03:14;;;;;;;;;;;23.40;99.90;;;;;;5014981;28;19964;-75
2022/03/07 00:05:41;;;;;;;;;;;23.30;99.90;;;;;;5015056;28;19909;-74
2022/03/07 00:08:08;;;;;;;;;;;23.30;99.90;;;;;;5014652;28;19925;-75
2022/03/07 00:10:35;;;;;;;;;;;23.20;99.90;;;;;;5014807;28;19937;-75
2022/03/07 00:13:02;;;;;;;;;;;23.10;99.90;;;;;;5014759;28;19916;-75
2022/03/07 00:15:29;;;;;;;;;;;23.10;99.90;;;;;;5014843;28;19909;-75
2022/03/07 00:17:55;;;;;;;;;;;23.10;99.90;;;;;;5014856;28;19959;-75
2022/03/07 00:20:22;;;;;;;;;;;23.00;99.90;;;;;;5014780;28;19910;-75
2022/03/07 00:22:49;;;;;;;;;;;22.90;99.90;;;;;;5014821;28;19971;-75
2022/03/07 00:25:17;;;;;;;;;;;22.90;99.90;;;;;;5015261;28;19932;-76
2022/03/07 00:27:44;;;;;;;;;;;22.90;99.90;;;;;;5014333;28;20000;-75
2022/03/07 00:30:11;;;;;;;;;;;23.00;99.90;;;;;;5014771;28;19909;-76
2022/03/07 00:32:38;;;;;;;;;;;23.00;99.90;;;;;;5014545;28;19956;-76
2022/03/07 00:35:04;;;;;;;;;;;23.00;99.90;;;;;;4997075;28;19914;-76
2022/03/07 00:37:32;;;;;;;;;;;23.00;99.90;;;;;;5014362;28;19932;-75
2022/03/07 00:39:58;;;;;;;;;;;23.10;99.90;;;;;;5014479;28;19910;-74
2022/03/07 00:42:25;;;;;;;;;;;23.10;99.90;;;;;;5014539;28;19913;-74
2022/03/07 00:44:51;;;;;;;;;;;23.00;99.90;;;;;;5014142;28;20311;-75
2022/03/07 00:47:18;;;;;;;;;;;22.90;99.90;;;;;;5014293;28;19913;-75
2022/03/07 00:49:45;;;;;;;;;;;22.70;99.90;;;;;;5014176;28;19917;-74
2022/03/07 00:52:12;;;;;;;;;;;22.50;99.90;;;;;;5014551;28;19913;-75
2022/03/07 00:54:38;;;;;;;;;;;22.30;99.90;;;;;;5014606;28;19909;-75
2022/03/07 00:57:05;;;;;;;;;;;22.40;99.90;;;;;;5014526;28;19913;-75
2022/03/07 00:59:32;;;;;;;;;;;22.50;99.90;;;;;;5014811;28;19929;-75
2022/03/07 01:01:58;;;;;;;;;;;22.50;99.90;;;;;;5014402;28;20267;-75
2022/03/07 01:04:25;;;;;;;;;;;22.50;99.90;;;;;;5014605;28;19920;-75
2022/03/07 01:06:52;;;;;;;;;;;22.50;99.90;;;;;;5019279;28;19932;-73
2022/03/07 01:09:18;;;;;;;;;;;22.50;99.90;;;;;;5017800;28;19940;-74
2022/03/07 01:11:45;;;;;;;;;;;22.60;99.90;;;;;;5014312;28;19913;-73
2022/03/07 01:14:12;;;;;;;;;;;22.90;99.90;;;;;;5013874;28;19909;-71
2022/03/07 01:16:38;;;;;;;;;;;23.00;99.90;;;;;;5015116;28;19909;-74
2022/03/07 01:19:05;;;;;;;;;;;23.00;99.90;;;;;;5014161;28;19921;-76
2022/03/07 01:21:32;;;;;;;;;;;23.10;99.90;;;;;;5014719;28;19914;-73
2022/03/07 01:23:58;;;;;;;;;;;23.10;99.90;;;;;;5015026;28;19909;-74
2022/03/07 01:26:25;;;;;;;;;;;23.20;99.90;;;;;;5015812;28;20271;-72
2022/03/07 01:28:52;;;;;;;;;;;23.40;99.90;;;;;;5015873;28;19925;-73
2022/03/07 01:31:18;;;;;;;;;;;23.40;99.90;;;;;;5015951;28;20356;-73
2022/03/07 01:33:45;;;;;;;;;;;23.40;99.90;;;;;;5014764;28;19937;-72
2022/03/07 01:36:11;;;;;;;;;;;23.40;99.90;;;;;;5013919;28;20391;-72
2022/03/07 01:38:38;;;;;;;;;;;23.40;99.90;;;;;;5014135;28;20331;-74
2022/03/07 01:43:40;;;;;;;;;;;23.50;99.90;;;;;;5038694;23;19926;-77
2022/03/07 01:46:09;;;;;;;;;;;23.70;99.90;;;;;;4973436;28;19921;-74
2022/03/07 01:48:36;;;;;;;;;;;23.90;99.90;;;;;;4973031;28;19925;-71
2022/03/07 01:51:03;;;;;;;;;;;24.00;99.90;;;;;;4974002;28;19922;-74
2022/03/07 01:53:30;;;;;;;;;;;24.00;99.90;;;;;;4974133;28;19910;-72
2022/03/07 01:55:56;;;;;;;;;;;24.00;99.90;;;;;;4973545;28;19910;-74
2022/03/07 01:58:23;;;;;;;;;;;24.10;99.90;;;;;;4973479;28;20237;-71
2022/03/07 02:00:50;;;;;;;;;;;24.10;99.90;;;;;;4973706;28;19910;-72
2022/03/07 02:03:16;;;;;;;;;;;24.20;99.90;;;;;;4973460;28;19997;-76
2022/03/07 02:05:45;;;;;;;;;;;24.20;99.90;;;;;;4973365;28;19964;-73
2022/03/07 02:08:12;;;;;;;;;;;24.30;99.90;;;;;;4973590;28;19925;-73
2022/03/07 02:10:39;;;;;;;;;;;24.20;99.90;;;;;;4973353;28;19914;-75
2022/03/07 02:13:15;;;;;;;;;;;24.00;99.90;;;;;;4973247;28;19914;-76
2022/03/07 02:15:42;;;;;;;;;;;24.20;99.90;;;;;;4972381;28;19910;-72
2022/03/07 02:18:09;;;;;;;;;;;24.20;99.90;;;;;;4973064;28;20122;-74
2022/03/07 02:20:36;;;;;;;;;;;24.20;99.90;;;;;;4972731;28;19997;-74
2022/03/07 02:23:03;;;;;;;;;;;24.10;99.90;;;;;;4973834;28;19914;-72
2022/03/07 02:25:29;;;;;;;;;;;24.10;99.90;;;;;;4973753;28;20005;-74
2022/03/07 02:27:56;;;;;;;;;;;24.30;99.90;;;;;;4973357;28;19918;-73
2022/03/07 02:30:23;;;;;;;;;;;24.50;99.90;;;;;;4973599;28;19914;-73
2022/03/07 02:32:51;;;;;;;;;;;24.50;99.90;;;;;;4973445;28;20257;-75
2022/03/07 02:35:17;;;;;;;;;;;24.60;99.90;;;;;;4973594;28;19910;-72
2022/03/07 02:37:44;;;;;;;;;;;24.60;99.90;;;;;;4973334;28;19972;-72
2022/03/07 02:40:11;;;;;;;;;;;24.40;99.90;;;;;;4973277;28;19957;-74
2022/03/07 02:42:38;;;;;;;;;;;24.30;99.90;;;;;;4973208;28;19922;-76
2022/03/07 02:45:05;;;;;;;;;;;24.30;99.90;;;;;;4973269;28;20033;-74
2022/03/07 02:47:32;;;;;;;;;;;24.30;99.90;;;;;;4973337;28;19918;-74
2022/03/07 02:49:59;;;;;;;;;;;24.30;99.90;;;;;;4973085;28;20012;-73
2022/03/07 02:52:25;;;;;;;;;;;24.30;99.90;;;;;;4974940;28;19910;-75
2022/03/07 02:54:52;;;;;;;;;;;24.50;99.90;;;;;;4977169;28;19910;-76
2022/03/07 02:57:19;;;;;;;;;;;24.60;99.90;;;;;;4977090;28;19914;-75
2022/03/07 02:59:45;;;;;;;;;;;24.50;99.90;;;;;;4976775;28;19921;-76
2022/03/07 03:02:13;;;;;;;;;;;24.50;99.90;;;;;;4977257;28;20384;-76
2022/03/07 03:04:40;;;;;;;;;;;24.70;99.90;;;;;;4977248;28;19914;-73
2022/03/07 03:07:10;;;;;;;;;;;25.00;99.90;;;;;;4977270;28;19942;-75
2022/03/07 03:09:37;;;;;;;;;;;25.10;99.90;;;;;;4977411;28;19921;-73
2022/03/07 03:12:03;;;;;;;;;;;25.20;99.90;;;;;;4976597;28;20296;-77
2022/03/07 03:14:30;;;;;;;;;;;25.30;99.90;;;;;;4976717;28;19910;-74
2022/03/07 03:16:57;;;;;;;;;;;25.20;99.90;;;;;;4976867;28;19965;-73
2022/03/07 03:19:23;;;;;;;;;;;25.30;99.90;;;;;;4976801;28;19910;-75
2022/03/07 03:21:50;;;;;;;;;;;25.40;99.90;;;;;;4976496;28;19957;-75
2022/03/07 03:24:17;;;;;;;;;;;25.50;99.90;;;;;;4976754;28;19910;-75
2022/03/07 03:26:43;;;;;;;;;;;25.70;99.90;;;;;;4976614;28;20090;-74
2022/03/07 03:29:10;;;;;;;;;;;25.70;99.90;;;;;;4976535;28;20020;-74
2022/03/07 03:31:37;;;;;;;;;;;25.70;99.90;;;;;;4976635;28;19950;-75
2022/03/07 03:34:03;;;;;;;;;;;25.80;99.90;;;;;;4976501;28;19917;-74
2022/03/07 03:36:30;;;;;;;;;;;25.70;99.90;;;;;;4976480;28;19910;-76
2022/03/07 03:38:57;;;;;;;;;;;25.70;99.90;;;;;;4976257;28;20376;-74
2022/03/07 03:41:23;;;;;;;;;;;25.70;99.90;;;;;;4976388;28;20368;-73
2022/03/07 03:43:50;;;;;;;;;;;25.50;99.90;;;;;;4976182;28;19922;-75
2022/03/07 03:46:16;;;;;;;;;;;25.40;99.90;;;;;;4976405;28;19917;-74
2022/03/07 03:48:43;;;;;;;;;;;25.40;99.90;;;;;;4976285;28;19918;-73
2022/03/07 03:51:10;;;;;;;;;;;25.40;99.90;;;;;;4976213;28;19910;-73
2022/03/07 03:53:36;;;;;;;;;;;25.50;99.90;;;;;;4976001;28;20379;-73
2022/03/07 03:56:03;;;;;;;;;;;25.70;99.90;;;;;;4976039;28;20375;-74
2022/03/07 03:58:30;;;;;;;;;;;25.70;99.90;;;;;;4975978;28;20048;-74
2022/03/07 04:00:56;;;;;;;;;;;25.70;99.90;;;;;;4976075;28;19964;-74
2022/03/07 04:03:23;;;;;;;;;;;25.90;99.90;;;;;;4975444;28;19914;-73
2022/03/07 04:05:50;;;;;;;;;;;25.90;99.90;;;;;;4976052;28;19911;-73
2022/03/07 04:08:17;;;;;;;;;;;25.70;99.90;;;;;;4975770;28;19922;-75
2022/03/07 04:10:43;;;;;;;;;;;25.80;99.90;;;;;;4975881;28;19910;-73
2022/03/07 04:13:10;;;;;;;;;;;25.70;99.90;;;;;;4976055;28;20004;-73
2022/03/07 04:15:38;;;;;;;;;;;25.70;99.90;;;;;;4976095;28;20143;-75
2022/03/07 04:18:06;;;;;;;;;;;25.80;99.90;;;;;;4976151;28;19942;-76
2022/03/07 04:20:33;;;;;;;;;;;26.00;99.90;;;;;;4978343;28;19910;-75
2022/03/07 04:23:01;;;;;;;;;;;26.00;99.90;;;;;;4975888;28;20412;-75
2022/03/07 04:25:28;;;;;;;;;;;26.10;99.90;;;;;;4976025;28;19917;-76
2022/03/07 04:27:54;;;;;;;;;;;26.10;99.90;;;;;;4975515;28;19914;-77
2022/03/07 04:30:21;;;;;;;;;;;26.00;99.90;;;;;;4975682;28;20356;-75
2022/03/07 04:32:48;;;;;;;;;;;25.90;99.90;;;;;;4975843;28;19910;-75
2022/03/07 04:35:14;;;;;;;;;;;25.70;99.90;;;;;;4975394;28;19989;-76
2022/03/07 04:37:41;;;;;;;;;;;25.70;99.90;;;;;;4975096;28;19910;-75
2022/03/07 04:40:10;;;;;;;;;;;25.70;99.90;;;;;;4975207;28;19910;-75
2022/03/07 04:42:36;;;;;;;;;;;25.70;99.90;;;;;;4954518;28;19958;-74
2022/03/07 04:45:03;;;;;;;;;;;25.70;99.90;;;;;;4956163;28;19917;-74
2022/03/07 04:47:30;;;;;;;;;;;25.70;99.90;;;;;;4956205;28;19915;-74
2022/03/07 04:49:57;;;;;;;;;;;25.70;99.90;;;;;;4955680;28;19914;-75
2022/03/07 04:52:23;;;;;;;;;;;25.70;99.90;;;;;;4955752;28;19911;-74
2022/03/07 04:54:50;;;;;;;;;;;25.60;99.90;;;;;;4955826;28;19911;-74
2022/03/07 04:57:17;;;;;;;;;;;25.70;99.90;;;;;;4955550;28;20300;-74
2022/03/07 04:59:45;;;;;;;;;;;25.70;99.90;;;;;;4955533;28;19981;-75
2022/03/07 05:02:13;;;;;;;;;;;25.70;99.90;;;;;;4955477;28;19979;-76
2022/03/07 05:04:40;;;;;;;;;;;25.70;99.90;;;;;;4955586;29;19925;-74
2022/03/07 05:07:07;;;;;;;;;;;25.60;99.90;;;;;;4955360;28;19911;-74
2022/03/07 05:09:34;;;;;;;;;;;25.60;99.90;;;;;;4955614;28;20397;-75
2022/03/07 05:12:04;;;;;;;;;;;25.60;99.90;;;;;;4955018;28;20203;-75
2022/03/07 05:14:31;;;;;;;;;;;25.60;99.90;;;;;;4954490;28;19966;-74
2022/03/07 05:16:57;;;;;;;;;;;25.60;99.90;;;;;;4955278;28;19910;-75
2022/03/07 05:19:24;;;;;;;;;;;25.60;99.90;;;;;;4955569;28;19910;-75
2022/03/07 05:21:51;;;;;;;;;;;25.50;99.90;;;;;;4955102;28;19958;-74
2022/03/07 05:24:17;;;;;;;;;;;25.50;99.90;;;;;;4955254;28;20324;-75
2022/03/07 05:26:44;;;;;;;;;;;25.40;99.90;;;;;;4955105;28;20299;-73
2022/03/07 05:29:11;;;;;;;;;;;25.30;99.90;;;;;;4960483;28;20029;-74
2022/03/07 05:31:37;;;;;;;;;;;25.40;99.90;;;;;;4974300;28;20004;-73
2022/03/07 05:34:04;;;;;;;;;;;25.30;99.90;;;;;;4974353;28;19911;-74
2022/03/07 05:36:31;;;;;;;;;;;25.30;99.90;;;;;;4973833;28;19917;-74
2022/03/07 05:38:57;;;;;;;;;;;25.30;99.90;;;;;;4974331;28;19910;-75
2022/03/07 05:41:24;;;;;;;;;;;25.30;99.90;;;;;;4973856;28;20349;-75
2022/03/07 05:43:51;;;;;;;;;;;25.20;99.90;;;;;;4991820;28;19922;-75
2022/03/07 05:46:17;;;;;;;;;;;25.20;99.90;;;;;;4994031;28;19918;-76
2022/03/07 05:48:47;;;;;;;;;;;25.20;99.90;;;;;;4993616;28;19924;-74
2022/03/07 05:51:15;;;;;;;;;;;25.10;99.90;;;;;;4992469;28;20383;-74
2022/03/07 05:53:42;;;;;;;;;;;25.10;99.90;;;;;;4991294;28;19921;-73
2022/03/07 05:56:09;;;;;;;;;;;25.10;99.90;;;;;;4991436;28;19918;-74
2022/03/07 05:58:35;;;;;;;;;;;25.00;99.90;;;;;;4991427;28;20283;-74
2022/03/07 06:01:02;;;;;;;;;;;25.00;99.90;;;;;;4991327;28;20253;-74
2022/03/07 06:03:29;;;;;;;;;;;25.00;99.90;;;;;;4991414;28;20548;-74
2022/03/07 06:05:55;;;;;;;;;;;25.00;99.90;;;;;;4990651;28;19910;-75
2022/03/07 06:08:22;;;;;;;;;;;24.80;99.90;;;;;;4990976;28;19961;-75
2022/03/07 06:10:49;;;;;;;;;;;24.80;99.90;;;;;;4991098;28;19913;-74
2022/03/07 06:13:16;;;;;;;;;;;24.80;99.90;;;;;;4989161;28;20279;-75
2022/03/07 06:15:43;;;;;;;;;;;24.80;99.90;;;;;;4991086;28;19914;-75
2022/03/07 06:18:11;;;;;;;;;;;24.70;99.90;;;;;;4990840;28;19921;-74
2022/03/07 06:20:38;;;;;;;;;;;24.70;99.90;;;;;;4991041;28;19965;-74
2022/03/07 06:23:05;;;;;;;;;;;24.70;99.90;;;;;;4991024;28;19914;-75
2022/03/07 06:25:33;;;;;;;;;;;24.60;99.90;;;;;;4990780;28;19920;-75
2022/03/07 06:28:01;;;;;;;;;;;24.60;99.90;;;;;;4994689;28;19918;-73
2022/03/07 06:30:27;;;;;;;;;;;24.50;99.90;;;;;;4995217;28;19987;-74
2022/03/07 06:32:54;;;;;;;;;;;24.30;99.90;;;;;;4995020;28;20283;-75
2022/03/07 06:35:21;;;;;;;;;;;24.30;99.90;;;;;;4994927;28;19941;-74
2022/03/07 06:37:48;;;;;;;;;;;24.20;99.90;;;;;;4994421;28;19964;-73
2022/03/07 06:40:15;;;;;;;;;;;24.10;99.90;;;;;;4994714;28;19937;-74
2022/03/07 06:42:43;;;;;;;;;;;24.00;99.90;;;;;;4994540;28;20427;-73
2022/03/07 06:45:12;;;;;;;;;;;23.90;99.90;;;;;;4995169;28;20386;-73
2022/03/07 06:47:39;;;;;;;;;;;23.70;99.90;;;;;;4994560;28;20291;-71
2022/03/07 06:50:06;;;;;;;;;;;23.30;99.90;;;;;;4994819;28;20312;-74
2022/03/07 06:52:33;;;;;;;;;;;22.90;99.90;;;;;;4988731;28;19914;-71
2022/03/07 06:55:00;;;;;;;;;;;22.80;99.90;;;;;;4994510;28;20304;-72
2022/03/07 06:57:26;;;;;;;;;;;22.80;99.90;;;;;;4994311;28;19952;-70
2022/03/07 06:59:53;;;;;;;;;;;22.50;99.90;;;;;;4993013;28;19917;-74
2022/03/07 07:02:20;;;;;;;;;;;22.30;99.90;;;;;;4994780;28;19925;-73
2022/03/07 07:04:46;;;;;;;;;;;22.30;99.90;;;;;;4994168;28;19917;-73
2022/03/07 07:07:14;;;;;;;;;;;22.40;99.90;;;;;;4993786;28;19914;-73
2022/03/07 07:09:41;;;;;;;;;;;22.60;99.90;;;;;;4993970;28;19917;-72
2022/03/07 07:12:08;;;;;;;;;;;22.70;99.90;;;;;;4994117;28;19917;-75
2022/03/07 07:14:36;;;;;;;;;;;22.80;99.90;;;;;;4994177;28;19964;-74
2022/03/07 07:17:03;;;;;;;;;;;22.80;99.90;;;;;;4993922;28;19963;-73
2022/03/07 07:19:30;;;;;;;;;;;22.80;99.90;;;;;;4994122;28;19909;-75
2022/03/07 07:21:57;;;;;;;;;;;22.70;99.90;;;;;;4993340;28;19985;-79
2022/03/07 07:24:24;;;;;;;;;;;22.70;99.90;;;;;;4994320;28;19910;-79
2022/03/07 07:26:50;;;;;;;;;;;22.70;99.90;;;;;;4994085;28;20071;-80
2022/03/07 07:29:17;;;;;;;;;;;22.70;99.90;;;;;;4994044;28;19921;-75
2022/03/07 07:31:44;;;;;;;;;;;22.70;99.90;;;;;;4993367;28;19921;-78
2022/03/07 07:34:10;;;;;;;;;;;22.80;99.90;;;;;;4994055;28;20008;-78
2022/03/07 07:36:37;;;;;;;;;;;22.80;99.90;;;;;;4993523;28;19909;-78
2022/03/07 07:39:04;;;;;;;;;;;22.90;99.90;;;;;;4992838;28;19910;-78
2022/03/07 07:41:31;;;;;;;;;;;22.90;99.90;;;;;;4993911;28;19917;-78
2022/03/07 07:43:57;;;;;;;;;;;22.90;99.90;;;;;;4992839;28;19929;-72
2022/03/07 07:46:24;;;;;;;;;;;22.90;99.90;;;;;;4993443;28;19914;-75
2022/03/07 07:48:51;;;;;;;;;;;22.90;99.90;;;;;;4993779;28;20016;-78
2022/03/07 07:51:17;;;;;;;;;;;23.00;99.90;;;;;;4993023;28;19936;-78
2022/03/07 07:53:44;;;;;;;;;;;23.00;99.90;;;;;;4993800;28;20304;-73
2022/03/07 07:56:11;;;;;;;;;;;23.00;99.90;;;;;;4992805;28;19910;-79
2022/03/07 07:58:37;;;;;;;;;;;23.00;99.90;;;;;;5000634;28;20048;-81
2022/03/07 08:01:04;;;;;;;;;;;22.90;99.90;;;;;;4997026;28;19909;-82
2022/03/07 08:03:31;;;;;;;;;;;22.80;99.90;;;;;;4993564;28;19910;-76
2022/03/07 08:05:58;;;;;;;;;;;22.70;99.90;;;;;;4994327;28;19910;-80
2022/03/07 08:08:25;;;;;;;;;;;22.60;99.90;;;;;;4995260;28;20013;-75
2022/03/07 08:10:51;;;;;;;;;;;22.50;99.90;;;;;;4977784;28;19971;-82
2022/03/07 08:13:18;;;;;;;;;;;22.50;99.90;;;;;;4995446;28;19910;-80
2022/03/07 08:15:45;;;;;;;;;;;22.60;99.90;;;;;;4995146;28;20000;-78
2022/03/07 08:18:12;;;;;;;;;;;22.60;99.90;;;;;;4995261;28;19980;-77
2022/03/07 08:20:38;;;;;;;;;;;22.60;99.90;;;;;;4995337;28;20368;-81
2022/03/07 08:23:05;;;;;;;;;;;22.70;99.90;;;;;;4995345;28;19916;-82
2022/03/07 08:25:32;;;;;;;;;;;22.60;99.90;;;;;;4995050;28;19945;-82
2022/03/07 08:28:00;;;;;;;;;;;22.60;99.90;;;;;;4994888;28;19917;-81
2022/03/07 08:30:28;;;;;;;;;;;22.60;99.90;;;;;;4994983;28;20004;-77
2022/03/07 08:32:55;;;;;;;;;;;22.50;99.90;;;;;;4994931;28;20008;-78
2022/03/07 08:35:22;;;;;;;;;;;22.50;99.90;;;;;;4994878;28;19914;-78
2022/03/07 08:37:49;;;;;;;;;;;22.40;99.90;;;;;;4994802;28;19916;-74
2022/03/07 08:40:17;;;;;;;;;;;22.30;99.90;;;;;;4994871;28;19955;-76
2022/03/07 08:42:44;;;;;;;;;;;22.20;99.90;;;;;;4994792;28;19922;-79
2022/03/07 08:45:11;;;;;;;;;;;22.10;99.90;;;;;;4994980;28;19917;-78
2022/03/07 08:47:39;;;;;;;;;;;22.00;99.90;;;;;;4994888;28;19920;-79
2022/03/07 08:50:07;;;;;;;;;;;22.10;99.90;;;;;;4994862;28;19914;-82
2022/03/07 08:52:33;;;;;;;;;;;22.20;99.90;;;;;;4994885;28;19914;-79
2022/03/07 08:55:00;;;;;;;;;;;22.20;99.90;;;;;;4994563;28;19992;-80
2022/03/07 08:57:27;;;;;;;;;;;22.20;99.90;;;;;;4993853;28;20348;-79
2022/03/07 08:59:53;;;;;;;;;;;22.20;99.90;;;;;;4992865;28;20272;-80
2022/03/07 09:02:20;;;;;;;;;;;22.20;99.90;;;;;;4994017;28;19910;-80
2022/03/07 09:04:47;;;;;;;;;;;22.10;99.90;;;;;;4994485;28;19910;-79
2022/03/07 09:07:13;;;;;;;;;;;22.10;99.90;;;;;;4994621;28;19912;-79
2022/03/07 09:09:40;;;;;;;;;;;22.20;99.90;;;;;;4993530;28;20008;-79
2022/03/07 09:12:09;;;;;;;;;;;22.20;99.90;;;;;;4994710;28;20387;-80
2022/03/07 09:14:36;;;;;;;;;;;22.20;99.90;;;;;;4994622;28;19909;-80
2022/03/07 09:17:03;;;;;;;;;;;22.20;99.90;;;;;;4994829;28;19910;-80
2022/03/07 09:19:32;;;;;;;;;;;22.20;99.90;;;;;;4994571;28;19909;-76
2022/03/07 09:21:58;;;;;;;;;;;22.20;99.90;;;;;;4994350;28;19910;-80
2022/03/07 09:24:25;;;;;;;;;;;22.20;99.90;;;;;;4994191;28;19910;-80
2022/03/07 09:26:52;;;;;;;;;;;22.20;99.90;;;;;;4994144;28;19956;-80
2022/03/07 09:29:19;;;;;;;;;;;22.20;99.90;;;;;;4994127;28;19918;-80
2022/03/07 09:31:45;;;;;;;;;;;22.20;99.90;;;;;;4993993;28;19914;-81
2022/03/07 09:34:14;;;;;;;;;;;22.20;99.90;;;;;;4994482;28;19968;-81
2022/03/07 09:36:41;;;;;;;;;;;22.20;99.90;;;;;;4994118;28;19909;-81
2022/03/07 09:39:07;;;;;;;;;;;22.20;99.90;;;;;;4994098;28;19910;-81
2022/03/07 09:41:34;;;;;;;;;;;22.20;99.90;;;;;;4993553;28;19917;-81
2022/03/07 09:44:01;;;;;;;;;;;22.20;99.90;;;;;;4994346;28;20451;-81
2022/03/07 09:46:27;;;;;;;;;;;22.20;99.90;;;;;;4993950;28;20044;-79
2022/03/07 09:48:54;;;;;;;;;;;22.20;99.90;;;;;;4993803;28;19918;-73
2022/03/07 09:51:21;;;;;;;;;;;22.20;99.90;;;;;;4997215;28;20004;-81
2022/03/07 09:53:48;;;;;;;;;;;22.30;99.90;;;;;;4993558;28;19957;-82
2022/03/07 09:56:14;;;;;;;;;;;22.30;99.90;;;;;;4993387;28;19917;-79
2022/03/07 09:58:41;;;;;;;;;;;22.30;99.90;;;;;;4994136;28;19914;-80
2022/03/07 10:01:19;;;;;;;;;;;22.30;99.90;;;;;;4993043;28;19910;-80
2022/03/07 10:03:46;;;;;;;;;;;22.30;99.90;;;;;;4993533;28;19920;-81
2022/03/07 10:06:19;;;;;;;;;;;22.30;99.90;;;;;;4993119;28;19914;-81
2022/03/07 10:08:59;;;;;;;;;;;22.40;99.90;;;;;;4993315;28;19921;-81
2022/03/07 10:11:26;;;;;;;;;;;22.40;99.90;;;;;;4993421;28;19914;-79
2022/03/07 10:13:54;;;;;;;;;;;22.40;99.90;;;;;;4993559;28;19917;-78
2022/03/07 10:16:21;;;;;;;;;;;22.40;99.90;;;;;;4993709;28;20360;-79
2022/03/07 10:18:52;;;;;;;;;;;22.40;99.90;;;;;;4993573;28;19910;-78
2022/03/07 10:21:26;;;;;;;;;;;22.40;99.90;;;;;;4994603;28;20327;-78
2022/03/07 10:23:54;;;;;;;;;;;22.40;99.90;;;;;;4994273;28;19917;-77
2022/03/07 10:26:21;;;;;;;;;;;22.40;99.90;;;;;;4993914;28;19910;-77
2022/03/07 10:28:56;;;;;;;;;;;22.40;99.90;;;;;;4993823;28;19918;-77
2022/03/07 10:31:23;;;;;;;;;;;22.40;99.90;;;;;;4993677;28;19914;-78
2022/03/07 10:34:22;;;;;;;;;;;22.40;99.90;;;;;;4993558;28;20253;-79
2022/03/07 10:36:53;;;;;;;;;;;22.40;99.90;;;;;;4942128;28;19914;-78
2022/03/07 10:39:24;;;;;;;;;;;22.40;99.90;;;;;;4994908;28;19945;-80
2022/03/07 10:41:51;;;;;;;;;;;22.40;99.90;;;;;;4993095;28;20382;-80
2022/03/07 10:44:24;;;;;;;;;;;22.50;99.90;;;;;;4993804;28;20349;-75
2022/03/07 10:46:51;;;;;;;;;;;22.40;99.90;;;;;;4976675;28;19945;-72
2022/03/07 10:49:17;;;;;;;;;;;22.40;99.90;;;;;;4993309;28;19925;-73
2022/03/07 10:51:52;;;;;;;;;;;22.40;99.90;;;;;;4993464;28;19910;-74
2022/03/07 10:54:19;;;;;;;;;;;22.40;99.90;;;;;;4993375;28;19955;-72
2022/03/07 10:56:50;;;;;;;;;;;22.40;99.90;;;;;;4993552;28;19924;-76
2022/03/07 10:59:27;;;;;;;;;;;22.40;99.90;;;;;;4993392;28;19909;-79
2022/03/07 11:02:06;;;;;;;;;;;22.40;99.90;;;;;;4993209;28;19910;-73
2022/03/07 11:04:37;;;;;;;;;;;22.40;99.90;;;;;;4993172;28;19917;-72
2022/03/07 11:07:04;;;;;;;;;;;22.40;99.90;;;;;;4993325;28;19910;-79
2022/03/07 11:09:31;;;;;;;;;;;22.50;99.90;;;;;;4992921;28;20291;-77
2022/03/07 11:11:58;;;;;;;;;;;22.40;99.90;;;;;;4992992;28;20386;-79
2022/03/07 11:14:26;;;;;;;;;;;22.40;99.90;;;;;;4996403;28;19993;-78
2022/03/07 11:16:56;;;;;;;;;;;22.40;99.90;;;;;;4996584;28;19917;-76
2022/03/07 11:19:26;;;;;;;;;;;22.40;99.90;;;;;;4996310;28;19964;-76
2022/03/07 11:21:55;;;;;;;;;;;22.40;99.90;;;;;;4996480;28;19910;-79
2022/03/07 11:24:25;;;;;;;;;;;22.40;99.90;;;;;;4995346;28;19909;-78
2022/03/07 11:26:53;;;;;;;;;;;22.40;99.90;;;;;;4979249;28;19910;-80
2022/03/07 11:29:31;;;;;;;;;;;22.40;99.90;;;;;;4996663;28;19941;-78
2022/03/07 11:32:02;;;;;;;;;;;22.40;99.90;;;;;;4996189;28;20257;-81
2022/03/07 11:34:28;;;;;;;;;;;22.40;99.90;;;;;;4996812;28;20352;-77
2022/03/07 11:36:55;;;;;;;;;;;22.40;99.90;;;;;;4996209;28;19910;-79
2022/03/07 11:39:32;;;;;;;;;;;22.30;99.90;;;;;;4996063;28;19909;-74
2022/03/07 11:42:30;;;;;;;;;;;22.40;99.90;;;;;;4995852;28;19913;-76
2022/03/07 11:45:03;;;;;;;;;;;22.30;99.90;;;;;;4976476;28;19917;-79
2022/03/07 11:47:36;;;;;;;;;;;22.30;99.90;;;;;;4996027;28;19989;-79
2022/03/07 11:50:03;;;;;;;;;;;22.30;99.90;;;;;;4995986;28;19914;-77
2022/03/07 11:52:30;;;;;;;;;;;22.30;99.90;;;;;;4996206;28;19921;-78
2022/03/07 11:54:58;;;;;;;;;;;22.20;99.90;;;;;;4995955;28;19916;-77
2022/03/07 11:57:42;;;;;;;;;;;22.20;99.90;;;;;;4995917;28;19925;-79
2022/03/07 12:00:12;;;;;;;;;;;22.20;99.90;;;;;;4996014;28;19933;-79
2022/03/07 12:02:42;;;;;;;;;;;22.20;99.90;;;;;;4995789;28;19997;-80
2022/03/07 12:05:19;;;;;;;;;;;22.30;99.90;;;;;;4995741;28;20319;-80
2022/03/07 12:07:46;;;;;;;;;;;22.30;99.90;;;;;;4995817;28;19914;-76
2022/03/07 12:10:13;;;;;;;;;;;22.20;99.90;;;;;;4995658;28;19948;-80
2022/03/07 12:12:40;;;;;;;;;;;22.10;99.90;;;;;;4995679;28;19918;-80
2022/03/07 12:15:13;;;;;;;;;;;22.00;99.90;;;;;;4995823;28;19942;-80
2022/03/07 12:17:40;;;;;;;;;;;21.90;99.90;;;;;;4995489;28;19910;-80
2022/03/07 12:20:07;;;;;;;;;;;22.00;99.90;;;;;;4995314;28;19910;-79
2022/03/07 12:22:38;;;;;;;;;;;21.90;99.90;;;;;;4995589;28;19972;-79
2022/03/07 12:25:07;;;;;;;;;;;21.80;99.90;;;;;;4977458;28;19933;-78
2022/03/07 12:27:37;;;;;;;;;;;21.80;99.90;;;;;;4995288;28;20383;-77
2022/03/07 12:30:05;;;;;;;;;;;21.80;99.90;;;;;;4995356;28;19936;-79
2022/03/07 12:32:32;;;;;;;;;;;21.90;99.90;;;;;;4995295;28;20372;-78
2022/03/07 12:34:59;;;;;;;;;;;22.00;99.90;;;;;;4995591;28;19962;-80
2022/03/07 12:37:28;;;;;;;;;;;22.00;99.90;;;;;;4995840;28;19957;-80
2022/03/07 12:39:59;;;;;;;;;;;21.90;99.90;;;;;;4994980;28;20410;-78
2022/03/07 12:42:34;;;;;;;;;;;21.80;99.90;;;;;;4996329;28;19999;-78
2022/03/07 12:45:01;;;;;;;;;;;21.70;99.90;;;;;;4995681;28;20040;-79
2022/03/07 12:47:29;;;;;;;;;;;21.70;99.90;;;;;;4996571;28;20311;-79
2022/03/07 12:49:56;;;;;;;;;;;21.70;99.90;;;;;;4995128;28;19956;-80
2022/03/07 12:52:29;;;;;;;;;;;21.70;99.90;;;;;;4995884;28;19916;-79
2022/03/07 12:54:57;;;;;;;;;;;21.80;99.90;;;;;;4995480;28;20323;-80
2022/03/07 12:57:24;;;;;;;;;;;21.80;99.90;;;;;;4996129;28;19917;-79
2022/03/07 13:00:01;;;;;;;;;;;21.70;99.90;;;;;;4995321;28;19914;-80
2022/03/07 13:02:38;;;;;;;;;;;21.60;99.90;;;;;;4995592;28;19933;-79
2022/03/07 13:05:08;;;;;;;;;;;21.60;99.90;;;;;;4995632;28;19960;-81
2022/03/07 13:07:35;;;;;;;;;;;21.50;99.90;;;;;;4995162;28;19910;-80
2022/03/07 13:10:21;;;;;;;;;;;21.60;99.90;;;;;;4996418;28;19957;-79
2022/03/07 13:12:51;;;;;;;;;;;21.60;99.90;;;;;;4995948;28;19910;-80
2022/03/07 13:15:18;;;;;;;;;;;21.60;99.90;;;;;;4995683;28;19916;-82
2022/03/07 13:17:44;;;;;;;;;;;21.70;99.90;;;;;;4996005;28;19910;-81
2022/03/07 13:20:11;;;;;;;;;;;21.70;99.90;;;;;;4995601;28;19910;-81
2022/03/07 13:22:39;;;;;;;;;;;21.70;99.90;;;;;;4998996;28;19917;-80
2022/03/07 13:25:05;;;;;;;;;;;21.70;99.90;;;;;;4996623;28;19933;-82
2022/03/07 13:27:32;;;;;;;;;;;21.70;99.90;;;;;;4995946;28;20360;-81
2022/03/07 13:30:06;;;;;;;;;;;21.60;99.90;;;;;;4994951;28;19967;-78
2022/03/07 13:32:38;;;;;;;;;;;21.60;99.90;;;;;;4996594;28;20000;-79
2022/03/07 13:35:04;;;;;;;;;;;21.60;99.90;;;;;;4998593;28;19916;-72
2022/03/07 13:37:44;;;;;;;;;;;21.50;99.90;;;;;;4994604;28;19910;-75
2022/03/07 13:40:15;;;;;;;;;;;21.40;99.90;;;;;;4994259;28;19917;-74
2022/03/07 13:42:43;;;;;;;;;;;21.50;99.90;;;;;;4994180;28;19922;-73
2022/03/07 13:45:14;;;;;;;;;;;21.50;99.90;;;;;;5000505;28;19914;-74
2022/03/07 13:47:41;;;;;;;;;;;21.50;99.90;;;;;;5000391;28;19910;-78
2022/03/07 13:50:13;;;;;;;;;;;21.50;99.90;;;;;;5000320;28;19914;-81
2022/03/07 13:52:41;;;;;;;;;;;21.50;99.90;;;;;;4996216;28;19914;-79
2022/03/07 13:55:09;;;;;;;;;;;21.50;99.90;;;;;;4995101;28;19910;-83
2022/03/07 13:57:37;;;;;;;;;;;21.50;99.90;;;;;;4994508;28;20410;-82
2022/03/07 14:00:08;;;;;;;;;;;21.40;99.90;;;;;;4994451;28;19910;-83
2022/03/07 14:02:42;;;;;;;;;;;21.40;99.90;;;;;;4994054;28;20264;-85
2022/03/07 14:05:10;;;;;;;;;;;21.40;99.90;;;;;;4995615;28;19914;-79
2022/03/07 14:08:00;;;;;;;;;;;21.40;99.90;;;;;;4994275;28;19944;-76
2022/03/07 14:10:27;;;;;;;;;;;21.40;99.90;;;;;;4994504;28;19925;-82
2022/03/07 14:12:54;;;;;;;;;;;21.40;99.90;;;;;;4995683;28;19910;-78
2022/03/07 14:15:25;;;;;;;;;;;21.40;99.90;;;;;;4994947;28;19910;-79
2022/03/07 14:17:55;;;;;;;;;;;21.40;99.90;;;;;;4994101;28;19969;-78
2022/03/07 14:20:22;;;;;;;;;;;21.40;99.90;;;;;;4993765;28;19910;-79
2022/03/07 14:22:49;;;;;;;;;;;21.40;99.90;;;;;;4993244;28;20391;-77